Time;durP1;ratioP1;P1;durP2;ratioP2;P2;SDS_P1;SDS_P2;PMS_P1;PMS_P2;Temp;Humidity;BMP_temperature;BMP_pressure;BME280_temperature;BME280_humidity;BME280_pressure;Samples;Min_cycle;Max_cycle;Signal;HPM_P1;HPM_P2
2021/08/05 00:02:15;;;;;;;12.53;6.95;;;;;;;18.28;97.32;99976.13;1786829;79;21518;-80
2021/08/05 00:04:44;;;;;;;12.93;6.50;;;;;;;18.26;95.31;99986.05;1786604;79;21061;-79
2021/08/05 00:07:13;;;;;;;9.60;7.33;;;;;;;18.24;97.04;99987.02;1786627;79;21038;-79
2021/08/05 00:09:43;;;;;;;10.98;8.10;;;;;;;18.21;98.08;99983.22;1787113;79;21041;-81
2021/08/05 00:12:09;;;;;;;10.43;7.35;;;;;;;18.16;95.67;99977.86;1786560;79;20998;-84
2021/08/05 00:14:37;;;;;;;11.22;7.50;;;;;;;18.17;98.27;99977.73;1787232;80;21741;-80
2021/08/05 00:17:06;;;;;;;10.90;7.03;;;;;;;18.15;94.87;99973.02;1769290;80;21583;-81
2021/08/05 00:19:33;;;;;;;13.50;9.08;;;;;;;18.19;96.37;99966.48;1786992;79;21061;-84
2021/08/05 00:21:59;;;;;;;9.55;6.83;;;;;;;18.20;97.48;99966.87;1786682;80;21065;-80
2021/08/05 00:24:27;;;;;;;10.35;8.63;;;;;;;18.18;95.41;99963.45;1786909;79;21002;-82
2021/08/05 00:26:54;;;;;;;12.47;9.33;;;;;;;18.19;97.85;99955.81;1786749;80;21124;-82
2021/08/05 00:29:21;;;;;;;9.25;7.15;;;;;;;18.16;95.21;99953.38;1786630;80;21054;-81
2021/08/05 00:31:49;;;;;;;13.18;8.10;;;;;;;18.21;96.53;99952.56;1786734;79;21603;-80
2021/08/05 00:34:18;;;;;;;13.03;9.23;;;;;;;18.22;96.96;99946.29;1786923;79;21077;-81
2021/08/05 00:36:45;;;;;;;14.03;8.58;;;;;;;18.24;96.05;99954.16;1787044;80;21472;-82
2021/08/05 00:39:12;;;;;;;12.18;9.20;;;;;;;18.26;98.47;99948.73;1775890;80;21136;-81
2021/08/05 00:41:39;;;;;;;17.65;10.45;;;;;;;18.23;98.12;99947.98;1775896;80;21116;-81
2021/08/05 00:44:06;;;;;;;13.10;9.08;;;;;;;18.26;97.94;99948.73;1778652;80;21683;-83
2021/08/05 00:46:34;;;;;;;18.02;11.30;;;;;;;18.24;99.94;99949.70;1784314;80;21082;-83
2021/08/05 00:49:01;;;;;;;13.45;10.32;;;;;;;18.26;98.64;99952.23;1783956;80;21055;-76
2021/08/05 00:51:30;;;;;;;16.90;10.78;;;;;;;18.28;99.82;99952.14;1782147;80;21537;-78
2021/08/05 00:53:57;;;;;;;14.10;9.75;;;;;;;18.26;100.00;99950.06;1783156;80;21305;-78
2021/08/05 00:56:25;;;;;;;16.25;11.30;;;;;;;18.24;99.57;99943.04;1769578;80;21046;-77
2021/08/05 00:58:53;;;;;;;23.38;10.90;;;;;;;18.23;100.00;99949.31;1787342;79;21057;-76
2021/08/05 01:01:22;;;;;;;16.32;9.33;;;;;;;18.20;100.00;99942.88;1787182;80;21580;-76
2021/08/05 01:03:53;;;;;;;16.05;11.55;;;;;;;18.20;100.00;99939.37;1786525;79;21684;-77
2021/08/05 01:06:44;;;;;;;15.80;10.18;;;;;;;18.18;100.00;99939.47;1786482;80;21010;-76
2021/08/05 01:09:35;;;;;;;15.13;10.72;;;;;;;18.16;99.72;99944.05;1750682;81;28183;-77
2021/08/05 01:12:10;;;;;;;15.65;10.53;;;;;;;18.16;100.00;99946.72;1750385;82;21126;-78
2021/08/05 01:14:40;;;;;;;14.07;11.12;;;;;;;18.17;100.00;99947.08;1750741;82;21074;-78
2021/08/05 01:17:09;;;;;;;13.68;10.32;;;;;;;18.20;100.00;99943.37;1750551;82;21748;-78
2021/08/05 01:19:56;;;;;;;17.30;12.05;;;;;;;18.21;100.00;99939.23;1750750;81;21074;-77
2021/08/05 01:22:47;;;;;;;13.93;9.95;;;;;;;18.19;100.00;99933.16;1755008;80;21082;-78
2021/08/05 01:25:46;;;;;;;8.98;6.70;;;;;;;18.18;100.00;99930.14;1781562;80;21054;-78
2021/08/05 01:28:14;;;;;;;18.62;11.78;;;;;;;18.18;100.00;99934.14;1746815;82;21053;-82
2021/08/05 01:30:42;;;;;;;14.95;10.63;;;;;;;18.18;100.00;99936.80;1719557;83;21534;-81
2021/08/05 01:33:09;;;;;;;15.32;10.38;;;;;;;18.15;100.00;99932.16;1736389;82;20980;-80
2021/08/05 01:35:36;;;;;;;20.52;11.28;;;;;;;18.14;100.00;99929.14;1732841;81;21118;-82
2021/08/05 01:38:03;;;;;;;12.10;9.20;;;;;;;18.14;100.00;99931.80;1733791;78;20960;-80
2021/08/05 01:40:30;;;;;;;14.75;10.70;;;;;;;18.12;100.00;99929.73;1733699;82;21118;-81
2021/08/05 01:42:57;;;;;;;12.23;9.60;;;;;;;18.11;100.00;99928.88;1724616;81;21112;-85
2021/08/05 01:45:25;;;;;;;17.60;11.10;;;;;;;18.10;100.00;99936.48;1713934;83;21079;-85
2021/08/05 01:47:53;;;;;;;16.25;10.53;;;;;;;18.10;100.00;99925.83;1748226;81;21105;-84
2021/08/05 01:50:20;;;;;;;11.90;9.38;;;;;;;18.11;100.00;99925.37;1767014;81;21062;-82
2021/08/05 01:52:48;;;;;;;14.65;9.93;;;;;;;18.10;100.00;99926.31;1700896;84;21114;-82
2021/08/05 01:55:17;;;;;;;14.20;11.20;;;;;;;18.08;100.00;99925.09;1759586;81;21136;-82
2021/08/05 01:57:43;;;;;;;13.13;8.65;;;;;;;18.05;100.00;99923.98;1757759;81;21039;-80
2021/08/05 02:00:12;;;;;;;18.17;11.22;;;;;;;18.08;100.00;99928.23;1758020;81;21137;-81
2021/08/05 02:02:39;;;;;;;17.17;10.55;;;;;;;18.09;100.00;99927.30;1757717;81;21082;-80
2021/08/05 02:05:09;;;;;;;12.73;9.43;;;;;;;18.09;99.46;99923.30;1766824;80;21029;-80
2021/08/05 02:07:49;;;;;;;15.98;10.65;;;;;;;18.12;100.00;99920.40;1751121;80;21065;-80
2021/08/05 02:10:30;;;;;;;11.68;8.75;;;;;;;18.09;98.51;99920.14;1773814;80;21100;-86
2021/08/05 02:13:19;;;;;;;;;;;;;;;18.09;95.97;99920.14;1777704;80;21018;-87
2021/08/05 02:15:53;;;;;;;13.72;9.60;;;;;;;18.10;98.49;99923.16;1775618;80;20169;-86
2021/08/05 02:18:21;;;;;;;12.80;7.87;;;;;;;18.06;97.80;99913.71;1737358;82;21044;-87
2021/08/05 02:20:48;;;;;;;12.23;9.00;;;;;;;18.05;95.77;99919.98;1774082;80;21123;-89
2021/08/05 02:23:16;;;;;;;11.28;9.15;;;;;;;18.07;98.29;99917.22;1774771;80;21529;-86
2021/08/05 02:25:45;;;;;;;7.33;5.83;;;;;;;18.04;96.41;99919.63;1752207;80;21533;-87
2021/08/05 02:28:12;;;;;;;12.10;9.98;;;;;;;18.05;96.12;99918.66;1753538;80;21105;-86
2021/08/05 02:30:40;;;;;;;11.63;9.03;;;;;;;18.04;99.14;99916.96;1737547;82;21095;-82
2021/08/05 02:33:07;;;;;;;15.28;9.15;;;;;;;18.02;98.00;99917.55;1743308;80;21153;-83
2021/08/05 02:35:38;;;;;;;14.03;9.73;;;;;;;18.01;98.51;99914.05;1742140;82;21098;-80
2021/08/05 02:38:05;;;;;;;11.97;9.03;;;;;;;17.98;99.70;99904.91;1742300;82;21058;-80
2021/08/05 02:40:33;;;;;;;15.20;9.90;;;;;;;17.95;96.67;99907.80;1742185;82;21110;-79
2021/08/05 02:43:03;;;;;;;11.83;9.48;;;;;;;17.96;100.00;99909.98;1735971;82;21120;-80
2021/08/05 02:45:30;;;;;;;15.08;9.45;;;;;;;17.93;99.95;99904.88;1721698;83;21127;-80
2021/08/05 02:47:59;;;;;;;12.50;9.63;;;;;;;17.93;98.04;99907.55;1722473;83;21596;-81
2021/08/05 02:50:27;;;;;;;12.45;8.88;;;;;;;17.92;99.58;99905.83;1722739;83;21128;-80
2021/08/05 02:52:55;;;;;;;12.63;9.48;;;;;;;17.94;98.17;99910.56;1722544;83;21028;-80
2021/08/05 02:55:23;;;;;;;11.43;9.50;;;;;;;17.96;99.12;99909.50;1741524;82;21055;-82
2021/08/05 02:57:52;;;;;;;13.28;8.80;;;;;;;17.96;98.97;99904.66;1745259;82;22009;-82
2021/08/05 03:00:20;;;;;;;15.03;10.80;;;;;;;17.96;98.27;99902.84;1744827;81;21624;-81
2021/08/05 03:02:48;;;;;;;15.08;10.32;;;;;;;17.96;99.63;99899.33;1740352;82;21014;-81
2021/08/05 03:05:15;;;;;;;12.30;9.30;;;;;;;17.94;98.53;99902.58;1740238;82;21092;-81
2021/08/05 03:07:42;;;;;;;19.73;10.68;;;;;;;17.94;99.12;99899.42;1740470;82;21058;-82
2021/08/05 03:10:14;;;;;;;11.43;7.65;;;;;;;17.96;99.05;99895.33;1740905;82;21508;-86
2021/08/05 03:12:43;;;;;;;14.95;9.33;;;;;;;17.96;96.41;99900.66;1740925;82;21033;-84
2021/08/05 03:15:12;;;;;;;14.07;9.60;;;;;;;18.02;98.74;99892.23;1740575;82;21069;-86
2021/08/05 03:17:40;;;;;;;15.20;10.58;;;;;;;18.05;97.80;99898.67;1740800;82;21569;-86
2021/08/05 03:20:15;;;;;;;16.25;10.30;;;;;;;18.11;97.55;99895.58;1740642;82;21069;-82
2021/08/05 03:22:38;;;;;;;;;;;;;;;18.19;98.82;99893.67;1744192;81;21081;-82
2021/08/05 03:25:07;;;;;;;17.10;10.20;;;;;;;18.29;97.93;99892.52;1752479;81;20127;-83
2021/08/05 03:27:34;;;;;;;17.20;10.80;;;;;;;18.39;98.73;99898.89;1753109;81;21052;-83
2021/08/05 03:30:01;;;;;;;12.05;8.80;;;;;;;18.53;97.45;99896.06;1752601;81;21060;-81
2021/08/05 03:32:29;;;;;;;13.10;9.63;;;;;;;18.76;95.11;99899.69;1752800;81;21760;-85
2021/08/05 03:34:57;;;;;;;15.05;9.83;;;;;;;19.05;95.51;99893.53;1752747;81;21142;-79
2021/08/05 03:37:24;;;;;;;12.90;9.23;;;;;;;19.37;92.76;99899.55;1752929;81;21352;-78
2021/08/05 03:39:51;;;;;;;10.23;8.43;;;;;;;19.67;90.32;99895.47;1753003;81;21029;-79
2021/08/05 03:42:18;;;;;;;11.83;8.23;;;;;;;19.97;90.25;99898.02;1752850;81;21056;-80
2021/08/05 03:44:45;;;;;;;10.20;8.30;;;;;;;20.17;86.34;99897.76;1770963;80;21022;-79
2021/08/05 03:47:12;;;;;;;10.72;8.95;;;;;;;20.37;86.24;99885.45;1772966;80;21089;-80
2021/08/05 03:49:41;;;;;;;16.25;9.45;;;;;;;20.52;84.88;99890.86;1772808;80;21038;-80
2021/08/05 03:52:10;;;;;;;11.50;8.55;;;;;;;20.53;82.92;99889.41;1772786;80;21034;-81
2021/08/05 03:54:37;;;;;;;10.75;7.97;;;;;;;20.48;84.30;99894.30;1773385;80;21061;-82
2021/08/05 03:57:05;;;;;;;9.48;8.48;;;;;;;20.43;83.43;99890.28;1773414;80;21038;-82
2021/08/05 03:59:34;;;;;;;12.85;8.60;;;;;;;20.35;84.13;99886.91;1774157;80;21955;-82
2021/08/05 04:02:01;;;;;;;10.58;8.40;;;;;;;20.27;85.46;99887.55;1775705;80;21027;-81
2021/08/05 04:04:28;;;;;;;13.95;9.58;;;;;;;20.24;81.47;99886.44;1775497;80;21046;-80
2021/08/05 04:06:55;;;;;;;8.13;7.25;;;;;;;20.27;86.05;99887.55;1773501;80;20992;-78
2021/08/05 04:09:22;;;;;;;11.18;6.87;;;;;;;20.37;85.09;99888.13;1760240;79;21069;-81
2021/08/05 04:11:49;;;;;;;12.93;9.00;;;;;;;20.50;83.05;99883.48;1758249;81;21101;-81
2021/08/05 04:14:16;;;;;;;9.08;7.47;;;;;;;20.65;84.72;99887.57;1739050;81;21062;-82
2021/08/05 04:16:43;;;;;;;11.18;8.88;;;;;;;20.68;80.87;99892.69;1758025;81;21053;-80
2021/08/05 04:19:10;;;;;;;12.65;9.28;;;;;;;20.72;84.32;99895.95;1738601;81;21093;-81
2021/08/05 04:21:37;;;;;;;10.72;8.88;;;;;;;20.86;83.99;99886.77;1758098;81;21053;-81
2021/08/05 04:24:06;;;;;;;12.00;9.00;;;;;;;21.02;80.74;99888.50;1680284;85;21434;-83
2021/08/05 04:26:33;;;;;;;10.25;7.92;;;;;;;21.18;81.99;99888.55;1761689;81;21010;-81
2021/08/05 04:29:00;;;;;;;11.15;9.15;;;;;;;21.23;79.89;99891.68;1767872;80;21026;-80
2021/08/05 04:31:27;;;;;;;10.58;8.45;;;;;;;21.25;80.96;99889.72;1760657;80;21033;-80
2021/08/05 04:33:54;;;;;;;11.55;9.60;;;;;;;21.15;79.79;99889.67;1689760;84;21047;-81
2021/08/05 04:36:21;;;;;;;14.83;9.28;;;;;;;21.09;81.09;99883.48;1759368;80;21437;-81
2021/08/05 04:38:49;;;;;;;15.78;9.15;;;;;;;21.04;82.70;99884.38;1766967;80;21109;-80
2021/08/05 04:41:16;;;;;;;11.53;8.88;;;;;;;20.97;81.23;99888.05;1763785;80;21552;-81
2021/08/05 04:43:43;;;;;;;12.45;9.83;;;;;;;20.87;80.86;99877.77;1696238;83;21073;-81
2021/08/05 04:46:10;;;;;;;14.87;8.75;;;;;;;20.84;82.93;99872.66;1707212;83;21117;-80
2021/08/05 04:48:37;;;;;;;14.43;8.83;;;;;;;20.86;80.68;99868.03;1735976;82;21114;-81
2021/08/05 04:51:06;;;;;;;13.80;9.35;;;;;;;20.92;82.50;99868.86;1746896;81;21417;-80
2021/08/05 04:53:33;;;;;;;13.58;8.50;;;;;;;20.99;82.19;99870.03;1746827;81;21064;-78
2021/08/05 04:56:00;;;;;;;12.63;9.20;;;;;;;21.00;80.49;99867.70;1746663;82;21957;-79
2021/08/05 04:58:27;;;;;;;11.30;9.33;;;;;;;21.07;82.04;99868.91;1746960;82;21094;-78
2021/08/05 05:00:54;;;;;;;16.48;9.35;;;;;;;21.18;78.90;99863.11;1746750;82;21098;-80
2021/08/05 05:03:23;;;;;;;11.93;9.00;;;;;;;21.41;80.18;99866.03;1743689;81;21005;-77
2021/08/05 05:05:52;;;;;;;10.40;8.28;;;;;;;21.78;78.98;99860.97;1733364;82;21562;-78
2021/08/05 05:08:22;;;;;;;13.80;9.50;;;;;;;22.07;76.49;99864.26;1716994;83;21472;-78
2021/08/05 05:10:53;;;;;;;13.65;9.83;;;;;;;22.39;77.86;99865.41;1720078;82;21498;-77
2021/08/05 05:13:20;;;;;;;10.95;8.48;;;;;;;22.70;75.34;99867.96;1726078;82;21092;-77
2021/08/05 05:15:49;;;;;;;12.25;9.60;;;;;;;23.01;72.97;99867.86;1733009;82;21591;-79
2021/08/05 05:18:18;;;;;;;13.00;9.70;;;;;;;23.25;72.88;99862.01;1725418;82;21104;-79
2021/08/05 05:20:47;;;;;;;11.48;9.15;;;;;;;23.30;69.68;99866.95;1729616;82;21717;-79
2021/08/05 05:23:14;;;;;;;15.08;10.58;;;;;;;23.27;70.56;99863.22;1734998;81;21091;-79
2021/08/05 05:25:41;;;;;;;16.20;11.43;;;;;;;23.23;71.12;99867.52;1716042;83;21018;-77
2021/08/05 05:28:08;;;;;;;16.52;12.03;;;;;;;23.22;69.79;99871.20;1751344;81;21104;-78
2021/08/05 05:30:35;;;;;;;14.23;11.90;;;;;;;23.21;71.51;99861.47;1750238;82;21097;-78
2021/08/05 05:33:04;;;;;;;15.93;12.35;;;;;;;23.18;70.61;99861.73;1766140;80;21038;-79
2021/08/05 05:35:31;;;;;;;15.38;12.60;;;;;;;23.07;70.90;99865.92;1769522;80;21101;-77
2021/08/05 05:37:58;;;;;;;13.80;10.88;;;;;;;22.97;71.76;99873.13;1771294;79;21490;-75
2021/08/05 05:40:25;;;;;;;18.57;13.93;;;;;;;22.87;70.86;99869.58;1771348;79;21053;-78
2021/08/05 05:42:54;;;;;;;20.30;14.20;;;;;;;22.85;73.29;99875.62;1773296;80;21080;-80
2021/08/05 05:45:21;;;;;;;19.27;13.88;;;;;;;22.72;72.81;99876.73;1781234;80;21575;-79
2021/08/05 05:47:49;;;;;;;16.65;13.75;;;;;;;22.66;72.98;99877.31;1776637;79;21106;-78
2021/08/05 05:50:16;;;;;;;17.57;13.20;;;;;;;22.56;73.27;99871.07;1772892;80;21131;-78
2021/08/05 05:52:43;;;;;;;21.02;15.45;;;;;;;22.55;72.34;99866.70;1780539;80;21018;-80
2021/08/05 05:55:10;;;;;;;21.48;16.42;;;;;;;22.56;73.11;99876.44;1757710;80;21124;-79
2021/08/05 05:57:37;;;;;;;22.20;15.32;;;;;;;22.57;74.07;99866.08;1750506;81;21092;-79
2021/08/05 06:00:05;;;;;;;26.68;17.27;;;;;;;22.63;72.99;99866.84;1750150;82;21103;-78
2021/08/05 06:02:34;;;;;;;19.83;16.20;;;;;;;22.72;74.10;99874.55;1749837;81;21098;-79
2021/08/05 06:05:01;;;;;;;23.18;16.25;;;;;;;22.82;73.37;99879.41;1749457;82;21071;-78
2021/08/05 06:07:28;;;;;;;22.82;15.58;;;;;;;22.86;73.12;99871.93;1750540;82;21040;-79
2021/08/05 06:09:55;;;;;;;15.80;12.13;;;;;;;22.93;73.94;99873.05;1750393;82;21599;-78
2021/08/05 06:12:22;;;;;;;16.90;13.40;;;;;;;23.07;71.86;99871.30;1750610;82;21100;-79
2021/08/05 06:14:51;;;;;;;16.65;13.58;;;;;;;23.18;72.13;99877.85;1750919;82;21145;-79
2021/08/05 06:17:18;;;;;;;20.40;14.20;;;;;;;23.27;71.34;99873.46;1750660;82;21041;-80
2021/08/05 06:19:45;;;;;;;17.42;13.28;;;;;;;23.41;70.21;99875.68;1751283;81;21049;-79
2021/08/05 06:22:12;;;;;;;15.08;12.30;;;;;;;23.60;70.98;99864.52;1750364;82;21060;-80
2021/08/05 06:24:39;;;;;;;14.63;11.73;;;;;;;23.81;68.30;99862.98;1750755;81;21053;-79
2021/08/05 06:27:07;;;;;;;17.50;12.82;;;;;;;24.18;69.19;99857.56;1750050;82;21084;-80
2021/08/05 06:29:35;;;;;;;13.55;11.43;;;;;;;24.69;66.99;99852.55;1750591;82;21584;-78
2021/08/05 06:32:03;;;;;;;16.67;12.28;;;;;;;25.19;64.40;99857.37;1750340;81;21045;-80
2021/08/05 06:34:30;;;;;;;20.75;12.50;;;;;;;25.62;64.12;99850.19;1750854;81;21059;-79
2021/08/05 06:36:56;;;;;;;17.73;12.93;;;;;;;25.80;61.81;99846.58;1750881;82;21049;-78
2021/08/05 06:39:23;;;;;;;17.50;13.00;;;;;;;25.90;61.70;99847.31;1750704;81;21793;-77
2021/08/05 06:41:51;;;;;;;20.97;14.23;;;;;;;26.08;61.41;99848.05;1750242;81;21088;-79
2021/08/05 06:44:18;;;;;;;16.10;12.43;;;;;;;26.16;59.66;99848.09;1748113;81;21100;-80
2021/08/05 06:46:44;;;;;;;16.40;11.45;;;;;;;26.07;60.30;99854.47;1742168;82;21085;-79
2021/08/05 06:49:12;;;;;;;15.08;11.95;;;;;;;26.20;60.36;99855.84;1742394;82;21092;-79
2021/08/05 06:51:39;;;;;;;18.92;11.10;;;;;;;26.52;59.12;99846.45;1741890;82;21970;-78
2021/08/05 06:54:06;;;;;;;23.02;12.93;;;;;;;26.98;57.88;99848.19;1751782;80;21065;-79
2021/08/05 06:56:34;;;;;;;17.87;11.88;;;;;;;27.24;55.95;99852.61;1772705;80;21030;-81
2021/08/05 06:59:01;;;;;;;19.00;12.05;;;;;;;27.21;55.54;99851.59;1773114;80;20991;-80
2021/08/05 07:01:28;;;;;;;22.10;11.48;;;;;;;27.09;55.93;99847.53;1772890;80;21065;-79
2021/08/05 07:03:55;;;;;;;15.98;10.40;;;;;;;26.98;55.39;99851.41;1773174;80;21156;-79
2021/08/05 07:06:22;;;;;;;14.33;11.35;;;;;;;27.05;55.84;99847.52;1773167;80;21497;-78
2021/08/05 07:08:51;;;;;;;15.32;11.68;;;;;;;27.20;54.94;99841.28;1773267;80;21133;-78
2021/08/05 07:11:20;;;;;;;15.58;10.63;;;;;;;27.45;54.00;99833.13;1773058;80;21580;-80
2021/08/05 07:13:48;;;;;;;14.78;10.18;;;;;;;27.76;52.68;99826.93;1773327;80;21041;-79
2021/08/05 07:16:15;;;;;;;14.20;9.35;;;;;;;28.01;51.09;99822.28;1773171;80;21111;-81
2021/08/05 07:18:42;;;;;;;49.40;17.35;;;;;;;28.16;51.01;99812.39;1773866;80;21086;-79
2021/08/05 07:21:09;;;;;;;10.50;8.05;;;;;;;28.33;50.71;99808.22;1774042;80;21481;-78
2021/08/05 07:23:36;;;;;;;14.07;9.25;;;;;;;28.45;49.69;99803.55;1758411;80;21076;-79
2021/08/05 07:26:03;;;;;;;14.70;9.23;;;;;;;28.59;50.13;99810.07;1743657;82;21505;-79
2021/08/05 07:28:30;;;;;;;14.30;9.75;;;;;;;28.65;48.67;99806.64;1744098;82;21127;-79
2021/08/05 07:30:57;;;;;;;11.45;8.30;;;;;;;28.72;49.33;99804.58;1744889;82;21076;-78
2021/08/05 07:33:25;;;;;;;12.95;8.65;;;;;;;28.85;48.24;99803.45;1752959;80;21051;-78
2021/08/05 07:35:51;;;;;;;15.65;9.55;;;;;;;29.02;47.17;99799.54;1746366;80;21026;-79
2021/08/05 07:38:18;;;;;;;13.13;8.78;;;;;;;29.11;46.55;99799.50;1754198;79;21040;-79
2021/08/05 07:40:45;;;;;;;14.78;8.43;;;;;;;29.09;46.32;99793.42;1762277;80;21495;-78
2021/08/05 07:43:14;;;;;;;13.25;7.97;;;;;;;29.28;45.54;99790.15;1751086;80;21066;-80
2021/08/05 07:45:41;;;;;;;12.58;7.58;;;;;;;29.56;44.48;99793.55;1768394;80;21057;-78
2021/08/05 07:48:08;;;;;;;14.28;9.38;;;;;;;29.74;43.83;99789.97;1748361;80;21545;-80
2021/08/05 07:50:36;;;;;;;16.40;9.20;;;;;;;30.06;42.85;99795.98;1742554;80;21100;-80
2021/08/05 07:53:03;;;;;;;14.10;7.70;;;;;;;30.22;43.24;99790.31;1751938;80;21834;-79
2021/08/05 07:55:31;;;;;;;15.10;9.28;;;;;;;30.40;42.66;99787.72;1779999;79;21069;-79
2021/08/05 07:57:58;;;;;;;10.98;8.08;;;;;;;30.59;42.65;99787.56;1770596;79;21600;-79
2021/08/05 08:00:25;;;;;;;10.40;8.93;;;;;;;30.85;42.05;99787.84;1742724;79;21145;-79
2021/08/05 08:02:52;;;;;;;15.95;9.93;;;;;;;30.93;41.88;99784.12;1755862;81;21042;-79
2021/08/05 08:05:19;;;;;;;12.28;8.15;;;;;;;30.99;41.65;99787.42;1752442;79;21061;-78
2021/08/05 08:07:46;;;;;;;12.82;8.13;;;;;;;31.01;40.66;99778.52;1763813;80;21043;-82
2021/08/05 08:10:14;;;;;;;13.55;8.38;;;;;;;31.00;41.49;99780.93;1768115;79;21042;-78
2021/08/05 08:12:41;;;;;;;10.10;7.45;;;;;;;31.03;41.02;99777.80;1750270;80;21065;-78
2021/08/05 08:15:09;;;;;;;12.98;7.92;;;;;;;31.13;41.14;99776.11;1771725;80;21561;-78
2021/08/05 08:17:36;;;;;;;9.35;7.70;;;;;;;31.27;40.78;99777.87;1763941;81;21265;-80
2021/08/05 08:20:07;;;;;;;14.47;9.58;;;;;;;31.21;40.31;99773.75;1743694;80;21051;-79
2021/08/05 08:22:33;;;;;;;13.10;8.58;;;;;;;30.98;41.62;99771.30;1763262;80;21039;-78
2021/08/05 08:25:01;;;;;;;11.15;9.00;;;;;;;31.06;41.11;99773.34;1752340;80;21061;-79
2021/08/05 08:27:28;;;;;;;12.78;8.10;;;;;;;31.32;40.46;99763.66;1745612;80;21588;-78
2021/08/05 08:29:55;;;;;;;10.25;8.78;;;;;;;31.82;40.79;99758.91;1752887;80;21138;-78
2021/08/05 08:32:22;;;;;;;16.00;9.33;;;;;;;32.32;39.48;99752.63;1762592;79;21591;-78
2021/08/05 08:34:49;;;;;;;14.30;8.65;;;;;;;32.48;38.83;99756.01;1771830;79;21080;-78
2021/08/05 08:37:20;;;;;;;13.08;8.65;;;;;;;32.30;38.42;99757.48;1746872;79;21066;-78
2021/08/05 08:39:47;;;;;;;13.78;8.00;;;;;;;32.05;38.65;99754.99;1752454;79;21054;-79
2021/08/05 08:42:16;;;;;;;13.65;9.30;;;;;;;31.58;39.25;99764.87;1764155;80;21107;-78
2021/08/05 08:44:45;;;;;;;12.88;7.87;;;;;;;30.99;40.76;99769.75;1755789;79;21065;-78
2021/08/05 08:47:12;;;;;;;9.83;8.75;;;;;;;30.65;41.41;99774.05;1733071;82;21044;-77
2021/08/05 08:49:42;;;;;;;11.12;8.33;;;;;;;30.61;41.71;99767.31;1718497;82;21045;-78
2021/08/05 08:52:10;;;;;;;12.30;8.18;;;;;;;30.36;42.27;99770.95;1716203;82;21142;-78
2021/08/05 08:54:44;;;;;;;13.43;8.30;;;;;;;30.18;43.03;99764.56;1740908;82;21033;-79
2021/08/05 08:57:16;;;;;;;12.03;8.40;;;;;;;29.86;42.55;99750.47;1708367;82;21382;-79
2021/08/05 08:59:44;;;;;;;12.37;9.83;;;;;;;29.87;42.84;99757.56;1729370;80;21647;-79
2021/08/05 09:02:14;;;;;;;16.65;9.45;;;;;;;29.98;42.86;99760.80;1732508;81;21990;-78
2021/08/05 09:04:41;;;;;;;11.70;9.13;;;;;;;29.98;42.86;99760.80;1730878;82;21058;-78
2021/08/05 09:07:09;;;;;;;12.93;9.45;;;;;;;30.10;43.24;99758.75;1676558;85;21119;-78
2021/08/05 09:09:56;;;;;;;12.47;9.23;;;;;;;30.04;43.41;99760.03;1729592;82;21077;-79
2021/08/05 09:12:52;;;;;;;12.88;8.10;;;;;;;30.01;43.10;99748.22;1726101;82;21117;-81
2021/08/05 09:15:40;;;;;;;13.95;9.83;;;;;;;30.16;43.22;99750.86;1720416;82;21094;-78
2021/08/05 09:18:29;;;;;;;11.30;9.38;;;;;;;30.41;43.34;99754.90;1733991;82;20979;-81
2021/08/05 09:21:16;;;;;;;10.93;8.70;;;;;;;30.36;42.85;99752.45;1717003;82;21149;-78
2021/08/05 09:23:54;;;;;;;10.93;9.15;;;;;;;30.30;43.66;99752.20;1725603;82;21015;-79
2021/08/05 09:26:33;;;;;;;12.82;8.88;;;;;;;29.73;45.01;99749.47;1719600;82;21085;-78
2021/08/05 09:29:21;;;;;;;12.43;9.13;;;;;;;29.73;45.01;99749.47;1731968;82;21944;-79
2021/08/05 09:31:59;;;;;;;13.35;9.40;;;;;;;29.53;45.19;99747.30;1728118;82;21698;-79
2021/08/05 09:34:36;;;;;;;14.33;10.15;;;;;;;29.29;46.75;99745.75;1720413;82;21093;-81
2021/08/05 09:37:08;;;;;;;12.10;9.05;;;;;;;29.25;47.21;99745.79;1680895;85;21023;-78
2021/08/05 09:39:39;;;;;;;12.13;9.65;;;;;;;29.35;46.10;99744.98;1666154;85;21105;-78
2021/08/05 09:42:11;;;;;;;16.00;9.80;;;;;;;29.53;46.16;99749.18;1735086;82;21096;-78
2021/08/05 09:44:46;;;;;;;16.30;9.63;;;;;;;29.62;46.15;99752.11;1724661;80;21662;-78
2021/08/05 09:47:19;;;;;;;15.15;10.80;;;;;;;29.76;45.58;99740.41;1772436;80;21172;-77
2021/08/05 09:49:54;;;;;;;17.95;10.00;;;;;;;29.87;45.65;99735.84;1752385;81;21077;-87
2021/08/05 09:52:35;;;;;;;11.63;9.08;;;;;;;30.00;45.42;99735.66;1767706;80;21002;-88
2021/08/05 09:55:07;;;;;;;14.00;8.68;;;;;;;30.26;44.87;99737.33;1772342;79;21002;-87
2021/08/05 09:57:38;;;;;;;15.40;7.95;;;;;;;30.10;44.93;99737.55;1777609;79;20923;-87
2021/08/05 10:00:12;;;;;;;12.88;7.83;;;;;;;30.28;43.99;99737.98;1763028;79;21172;-84
2021/08/05 10:02:52;;;;;;;12.07;7.90;;;;;;;30.28;43.99;99737.98;1769496;79;21078;-84
2021/08/05 10:05:23;;;;;;;14.83;8.15;;;;;;;30.38;43.55;99731.38;1764995;80;21300;-82
2021/08/05 10:07:52;;;;;;;12.20;7.50;;;;;;;30.59;42.60;99725.91;1772852;80;21038;-83
2021/08/05 10:10:25;;;;;;;14.83;7.75;;;;;;;31.58;42.05;99724.88;1773000;80;21120;-81
2021/08/05 10:12:59;;;;;;;13.68;7.72;;;;;;;31.58;42.05;99724.88;1748904;80;21534;-83
2021/08/05 10:15:28;;;;;;;13.22;7.65;;;;;;;31.53;41.79;99725.48;1742229;80;21054;-81
2021/08/05 10:18:00;;;;;;;11.12;7.72;;;;;;;31.41;42.10;99716.23;1742307;80;21090;-79
2021/08/05 10:20:28;;;;;;;11.22;7.97;;;;;;;31.64;41.07;99709.63;1760500;80;21012;-84
2021/08/05 10:22:58;;;;;;;11.40;7.40;;;;;;;31.76;41.20;99724.32;1700064;84;21647;-84
2021/08/05 10:25:26;;;;;;;10.38;6.90;;;;;;;31.64;42.49;99715.08;1707508;83;21762;-80
2021/08/05 10:27:55;;;;;;;10.75;7.65;;;;;;;31.69;41.31;99707.12;1776436;80;21073;-78
2021/08/05 10:30:21;;;;;;;11.80;6.20;;;;;;;31.73;40.99;99713.85;1710100;83;21117;-77
2021/08/05 10:32:49;;;;;;;11.40;7.00;;;;;;;31.85;41.05;99710.84;1759482;79;21029;-80
2021/08/05 10:35:15;;;;;;;13.58;7.20;;;;;;;31.73;40.87;99696.16;1727287;82;21088;-78
2021/08/05 10:37:43;;;;;;;10.90;6.97;;;;;;;31.67;41.54;99701.05;1752512;79;21036;-79
2021/08/05 10:40:13;;;;;;;14.07;8.78;;;;;;;31.60;41.73;99695.58;1766607;81;21678;-80
2021/08/05 10:42:45;;;;;;;11.43;7.92;;;;;;;31.46;41.69;99700.14;1767591;81;21585;-78
2021/08/05 10:45:13;;;;;;;13.88;7.00;;;;;;;31.18;42.16;99699.36;1763763;80;21185;-77
2021/08/05 10:47:40;;;;;;;12.68;7.47;;;;;;;30.59;42.44;99701.45;1743315;82;21365;-78
2021/08/05 10:50:13;;;;;;;10.45;6.83;;;;;;;30.27;43.89;99696.06;1763818;80;21065;-78
2021/08/05 10:52:44;;;;;;;12.58;7.47;;;;;;;30.02;44.21;99702.38;1776979;80;21112;-78
2021/08/05 10:55:25;;;;;;;12.20;8.08;;;;;;;29.65;44.72;99685.25;1773843;80;21051;-78
2021/08/05 11:00:56;;;;;;;13.13;6.72;;;;;;;29.71;44.87;99687.23;1808230;79;22612;-78
2021/08/05 11:03:45;;;;;;;11.88;7.42;;;;;;;29.69;45.46;99689.30;1785790;80;20957;-78
2021/08/05 11:06:26;;;;;;;11.70;6.70;;;;;;;29.64;45.81;99680.86;1786049;80;21145;-79
2021/08/05 11:08:53;;;;;;;11.60;7.87;;;;;;;29.77;43.92;99682.41;1779526;80;20946;-78
2021/08/05 11:11:27;;;;;;;10.48;7.72;;;;;;;29.77;45.21;99676.12;1781532;80;21549;-79
2021/08/05 11:14:05;;;;;;;14.05;7.12;;;;;;;29.80;45.82;99675.23;1771982;80;21097;-79
2021/08/05 11:17:01;;;;;;;12.35;7.10;;;;;;;29.79;44.60;99672.17;1768766;80;21053;-79
2021/08/05 11:19:35;;;;;;;12.58;7.87;;;;;;;29.86;44.98;99678.54;1769468;80;21044;-78
2021/08/05 11:22:36;;;;;;;10.90;7.60;;;;;;;29.86;44.98;99678.54;1773753;80;21187;-79
2021/08/05 11:25:03;;;;;;;11.65;7.22;;;;;;;29.83;43.37;99677.55;1781675;80;20954;-79
2021/08/05 11:27:30;;;;;;;12.78;6.85;;;;;;;29.88;43.90;99669.66;1718424;83;21662;-78
2021/08/05 11:29:57;;;;;;;11.22;8.40;;;;;;;29.89;44.60;99667.81;1731904;81;21017;-78
2021/08/05 11:32:30;;;;;;;14.15;6.97;;;;;;;30.04;42.50;99667.73;1689948;82;29616;-79
2021/08/05 11:35:02;;;;;;;10.20;7.15;;;;;;;30.33;44.09;99653.72;1642592;86;21028;-78
2021/08/05 11:37:29;;;;;;;11.40;7.17;;;;;;;30.59;43.48;99651.17;1665184;85;21028;-78